sensor_id;sensor_type;location;lat;lon;timestamp;temperature;humidity
21267;DHT22;10791;53.108;18.326;2023-02-01T00:03:50;3.40;99.90
21267;DHT22;10791;53.108;18.326;2023-02-01T00:08:54;3.40;99.90
21267;DHT22;10791;53.108;18.326;2023-02-01T00:13:57;3.50;99.90
21267;DHT22;10791;53.108;18.326;2023-02-01T00:19:09;3.60;99.90
21267;DHT22;10791;53.108;18.326;2023-02-01T00:24:13;3.60;99.90
21267;DHT22;10791;53.108;18.326;2023-02-01T00:29:19;3.50;99.90
21267;DHT22;10791;53.108;18.326;2023-02-01T00:34:23;3.60;99.90
21267;DHT22;10791;53.108;18.326;2023-02-01T00:39:26;3.70;99.90
21267;DHT22;10791;53.108;18.326;2023-02-01T00:44:32;3.70;99.90
21267;DHT22;10791;53.108;18.326;2023-02-01T00:49:43;3.80;99.90
21267;DHT22;10791;53.108;18.326;2023-02-01T00:54:46;3.80;99.90
21267;DHT22;10791;53.108;18.326;2023-02-01T00:59:55;3.70;99.90
21267;DHT22;10791;53.108;18.326;2023-02-01T01:05:01;3.70;99.90
21267;DHT22;10791;53.108;18.326;2023-02-01T01:10:09;3.70;99.90
21267;DHT22;10791;53.108;18.326;2023-02-01T01:15:21;3.70;99.90
21267;DHT22;10791;53.108;18.326;2023-02-01T01:46:28;3.30;99.90
21267;DHT22;10791;53.108;18.326;2023-02-01T01:51:35;3.30;99.90
21267;DHT22;10791;53.108;18.326;2023-02-01T01:56:40;3.20;99.90
21267;DHT22;10791;53.108;18.326;2023-02-01T02:01:45;3.20;99.90
21267;DHT22;10791;53.108;18.326;2023-02-01T02:07:02;3.20;99.90
21267;DHT22;10791;53.108;18.326;2023-02-01T02:12:06;3.30;99.90
21267;DHT22;10791;53.108;18.326;2023-02-01T02:23:00;3.40;99.90
21267;DHT22;10791;53.108;18.326;2023-02-01T02:43:59;3.60;99.90
21267;DHT22;10791;53.108;18.326;2023-02-01T02:49:34;3.60;99.90
21267;DHT22;10791;53.108;18.326;2023-02-01T02:54:41;3.70;99.90
21267;DHT22;10791;53.108;18.326;2023-02-01T02:59:49;3.80;99.90
21267;DHT22;10791;53.108;18.326;2023-02-01T03:05:12;3.80;99.90
21267;DHT22;10791;53.108;18.326;2023-02-01T03:10:23;3.80;99.90
21267;DHT22;10791;53.108;18.326;2023-02-01T03:15:36;3.80;99.90
21267;DHT22;10791;53.108;18.326;2023-02-01T03:20:44;3.70;99.90
21267;DHT22;10791;53.108;18.326;2023-02-01T03:25:50;3.70;99.90
21267;DHT22;10791;53.108;18.326;2023-02-01T03:30:54;3.80;99.90
21267;DHT22;10791;53.108;18.326;2023-02-01T03:46:38;3.90;99.90
21267;DHT22;10791;53.108;18.326;2023-02-01T03:51:42;3.90;99.90
21267;DHT22;10791;53.108;18.326;2023-02-01T03:56:48;3.90;99.90
21267;DHT22;10791;53.108;18.326;2023-02-01T04:01:56;3.90;99.90
21267;DHT22;10791;53.108;18.326;2023-02-01T04:06:59;4.00;99.90
21267;DHT22;10791;53.108;18.326;2023-02-01T04:12:03;4.00;99.90
21267;DHT22;10791;53.108;18.326;2023-02-01T04:17:06;4.00;99.90
21267;DHT22;10791;53.108;18.326;2023-02-01T04:22:10;4.00;99.90
21267;DHT22;10791;53.108;18.326;2023-02-01T04:27:18;4.00;99.90
21267;DHT22;10791;53.108;18.326;2023-02-01T04:32:21;4.00;99.90
21267;DHT22;10791;53.108;18.326;2023-02-01T04:37:27;3.90;99.90
21267;DHT22;10791;53.108;18.326;2023-02-01T04:42:33;3.90;99.90
21267;DHT22;10791;53.108;18.326;2023-02-01T04:47:37;3.90;99.90
21267;DHT22;10791;53.108;18.326;2023-02-01T04:52:43;3.90;99.90
21267;DHT22;10791;53.108;18.326;2023-02-01T04:57:51;3.90;99.90
21267;DHT22;10791;53.108;18.326;2023-02-01T05:02:54;3.80;99.90
21267;DHT22;10791;53.108;18.326;2023-02-01T05:07:59;3.70;99.90
21267;DHT22;10791;53.108;18.326;2023-02-01T05:13:02;3.70;99.90
21267;DHT22;10791;53.108;18.326;2023-02-01T05:18:24;3.70;99.90
21267;DHT22;10791;53.108;18.326;2023-02-01T05:23:28;3.80;99.90
21267;DHT22;10791;53.108;18.326;2023-02-01T05:28:32;3.80;99.90
21267;DHT22;10791;53.108;18.326;2023-02-01T05:33:35;3.80;99.90
21267;DHT22;10791;53.108;18.326;2023-02-01T05:38:39;3.80;99.90
21267;DHT22;10791;53.108;18.326;2023-02-01T05:43:42;3.90;99.90
21267;DHT22;10791;53.108;18.326;2023-02-01T05:48:46;4.00;99.90
21267;DHT22;10791;53.108;18.326;2023-02-01T05:53:49;4.00;99.90
21267;DHT22;10791;53.108;18.326;2023-02-01T05:58:53;4.10;99.90
21267;DHT22;10791;53.108;18.326;2023-02-01T06:03:57;4.10;99.90
21267;DHT22;10791;53.108;18.326;2023-02-01T06:09:00;4.20;99.90
21267;DHT22;10791;53.108;18.326;2023-02-01T06:14:04;4.10;99.90
21267;DHT22;10791;53.108;18.326;2023-02-01T06:19:07;4.10;99.90
21267;DHT22;10791;53.108;18.326;2023-02-01T06:24:11;4.10;99.90
21267;DHT22;10791;53.108;18.326;2023-02-01T06:29:15;4.10;99.90
21267;DHT22;10791;53.108;18.326;2023-02-01T06:34:18;4.00;99.90
21267;DHT22;10791;53.108;18.326;2023-02-01T06:39:23;4.00;99.90
21267;DHT22;10791;53.108;18.326;2023-02-01T06:44:27;4.00;99.90
21267;DHT22;10791;53.108;18.326;2023-02-01T06:49:30;4.00;99.90
21267;DHT22;10791;53.108;18.326;2023-02-01T06:54:33;4.00;99.90
21267;DHT22;10791;53.108;18.326;2023-02-01T06:59:37;4.00;99.90
21267;DHT22;10791;53.108;18.326;2023-02-01T07:04:43;4.10;99.90
21267;DHT22;10791;53.108;18.326;2023-02-01T07:09:46;4.10;99.90
21267;DHT22;10791;53.108;18.326;2023-02-01T07:14:50;4.10;99.90
21267;DHT22;10791;53.108;18.326;2023-02-01T07:19:53;4.10;99.90
21267;DHT22;10791;53.108;18.326;2023-02-01T07:24:56;4.20;99.90
21267;DHT22;10791;53.108;18.326;2023-02-01T07:30:00;4.20;99.90
21267;DHT22;10791;53.108;18.326;2023-02-01T07:35:05;4.20;99.90
21267;DHT22;10791;53.108;18.326;2023-02-01T07:40:09;4.30;99.90
21267;DHT22;10791;53.108;18.326;2023-02-01T07:45:13;4.30;99.90
21267;DHT22;10791;53.108;18.326;2023-02-01T07:50:23;4.40;99.90
21267;DHT22;10791;53.108;18.326;2023-02-01T07:55:27;4.40;99.90
21267;DHT22;10791;53.108;18.326;2023-02-01T08:00:31;4.40;99.90
21267;DHT22;10791;53.108;18.326;2023-02-01T08:05:55;4.50;99.90
21267;DHT22;10791;53.108;18.326;2023-02-01T08:11:01;4.60;99.90
21267;DHT22;10791;53.108;18.326;2023-02-01T08:16:10;4.60;99.90
21267;DHT22;10791;53.108;18.326;2023-02-01T08:21:27;4.70;99.90
21267;DHT22;10791;53.108;18.326;2023-02-01T08:26:39;4.80;99.90
21267;DHT22;10791;53.108;18.326;2023-02-01T08:31:43;4.90;99.90
21267;DHT22;10791;53.108;18.326;2023-02-01T08:36:47;4.90;99.90
21267;DHT22;10791;53.108;18.326;2023-02-01T08:41:50;5.10;99.90
21267;DHT22;10791;53.108;18.326;2023-02-01T08:47:12;5.10;99.90
21267;DHT22;10791;53.108;18.326;2023-02-01T08:52:15;5.20;99.90
21267;DHT22;10791;53.108;18.326;2023-02-01T08:57:18;5.20;99.90
21267;DHT22;10791;53.108;18.326;2023-02-01T09:02:22;5.20;99.90
21267;DHT22;10791;53.108;18.326;2023-02-01T09:07:25;5.20;99.90
21267;DHT22;10791;53.108;18.326;2023-02-01T09:12:31;5.10;99.90
21267;DHT22;10791;53.108;18.326;2023-02-01T09:17:35;5.00;99.90
21267;DHT22;10791;53.108;18.326;2023-02-01T09:22:38;4.90;99.90
21267;DHT22;10791;53.108;18.326;2023-02-01T09:27:42;4.90;99.90
21267;DHT22;10791;53.108;18.326;2023-02-01T09:32:45;5.10;99.90
21267;DHT22;10791;53.108;18.326;2023-02-01T09:37:49;5.20;99.90
21267;DHT22;10791;53.108;18.326;2023-02-01T09:48:29;5.00;99.90
21267;DHT22;10791;53.108;18.326;2023-02-01T09:53:48;4.90;99.90
21267;DHT22;10791;53.108;18.326;2023-02-01T10:04:32;4.80;99.90
21267;DHT22;10791;53.108;18.326;2023-02-01T10:15:19;5.00;99.90
21267;DHT22;10791;53.108;18.326;2023-02-01T10:26:37;5.30;99.90
21267;DHT22;10791;53.108;18.326;2023-02-01T10:32:27;5.30;99.90
21267;DHT22;10791;53.108;18.326;2023-02-01T10:38:16;5.40;99.90
21267;DHT22;10791;53.108;18.326;2023-02-01T10:43:25;5.50;99.90
21267;DHT22;10791;53.108;18.326;2023-02-01T10:48:31;5.40;99.90
21267;DHT22;10791;53.108;18.326;2023-02-01T10:54:20;5.40;99.90
21267;DHT22;10791;53.108;18.326;2023-02-01T10:59:27;5.50;99.90
21267;DHT22;10791;53.108;18.326;2023-02-01T11:04:39;5.60;99.90
21267;DHT22;10791;53.108;18.326;2023-02-01T11:09:52;5.80;99.90
21267;DHT22;10791;53.108;18.326;2023-02-01T11:20:19;6.20;99.90
21267;DHT22;10791;53.108;18.326;2023-02-01T11:25:24;6.30;99.90
21267;DHT22;10791;53.108;18.326;2023-02-01T11:35:40;6.00;99.90
21267;DHT22;10791;53.108;18.326;2023-02-01T11:40:45;5.90;99.90
21267;DHT22;10791;53.108;18.326;2023-02-01T11:46:01;5.70;99.90
21267;DHT22;10791;53.108;18.326;2023-02-01T11:51:15;5.60;99.90
21267;DHT22;10791;53.108;18.326;2023-02-01T12:07:28;5.80;99.90
21267;DHT22;10791;53.108;18.326;2023-02-01T12:12:53;5.80;99.90
21267;DHT22;10791;53.108;18.326;2023-02-01T12:23:40;6.20;99.90
21267;DHT22;10791;53.108;18.326;2023-02-01T12:28:46;6.50;99.90
21267;DHT22;10791;53.108;18.326;2023-02-01T12:39:39;6.40;99.90
21267;DHT22;10791;53.108;18.326;2023-02-01T13:00:20;5.60;99.90
21267;DHT22;10791;53.108;18.326;2023-02-01T13:11:03;5.70;99.90
21267;DHT22;10791;53.108;18.326;2023-02-01T13:16:16;5.70;99.90
21267;DHT22;10791;53.108;18.326;2023-02-01T13:21:25;5.70;99.90
21267;DHT22;10791;53.108;18.326;2023-02-01T13:26:30;5.70;99.90
21267;DHT22;10791;53.108;18.326;2023-02-01T13:37:23;5.70;99.90
21267;DHT22;10791;53.108;18.326;2023-02-01T13:42:47;5.60;99.90
21267;DHT22;10791;53.108;18.326;2023-02-01T13:47:56;5.50;99.90
21267;DHT22;10791;53.108;18.326;2023-02-01T13:53:03;5.50;99.90
21267;DHT22;10791;53.108;18.326;2023-02-01T13:58:42;5.40;99.90
21267;DHT22;10791;53.108;18.326;2023-02-01T14:04:05;5.40;99.90
21267;DHT22;10791;53.108;18.326;2023-02-01T14:19:27;5.20;99.90
21267;DHT22;10791;53.108;18.326;2023-02-01T14:24:33;5.20;99.90
21267;DHT22;10791;53.108;18.326;2023-02-01T14:29:39;5.20;99.90
21267;DHT22;10791;53.108;18.326;2023-02-01T14:40:06;5.10;99.90
21267;DHT22;10791;53.108;18.326;2023-02-01T15:00:59;5.20;99.90
21267;DHT22;10791;53.108;18.326;2023-02-01T15:06:03;5.20;99.90
21267;DHT22;10791;53.108;18.326;2023-02-01T15:11:14;5.20;99.90
21267;DHT22;10791;53.108;18.326;2023-02-01T15:16:18;5.20;99.90
21267;DHT22;10791;53.108;18.326;2023-02-01T15:21:26;5.20;99.90
21267;DHT22;10791;53.108;18.326;2023-02-01T15:26:34;5.20;99.90
21267;DHT22;10791;53.108;18.326;2023-02-01T15:31:40;5.10;99.90
21267;DHT22;10791;53.108;18.326;2023-02-01T15:36:46;5.10;99.90
21267;DHT22;10791;53.108;18.326;2023-02-01T15:42:12;5.10;99.90
21267;DHT22;10791;53.108;18.326;2023-02-01T15:47:27;5.10;99.90
21267;DHT22;10791;53.108;18.326;2023-02-01T15:52:39;5.10;99.90
21267;DHT22;10791;53.108;18.326;2023-02-01T15:57:42;5.00;99.90
21267;DHT22;10791;53.108;18.326;2023-02-01T16:03:01;4.90;99.90
21267;DHT22;10791;53.108;18.326;2023-02-01T16:08:13;4.90;99.90
21267;DHT22;10791;53.108;18.326;2023-02-01T16:13:20;4.70;99.90
21267;DHT22;10791;53.108;18.326;2023-02-01T16:18:25;4.70;99.90
21267;DHT22;10791;53.108;18.326;2023-02-01T16:23:29;4.60;99.90
21267;DHT22;10791;53.108;18.326;2023-02-01T16:28:36;4.60;99.90
21267;DHT22;10791;53.108;18.326;2023-02-01T16:33:40;4.50;99.90
21267;DHT22;10791;53.108;18.326;2023-02-01T16:38:45;4.40;99.90
21267;DHT22;10791;53.108;18.326;2023-02-01T16:43:55;4.40;99.90
21267;DHT22;10791;53.108;18.326;2023-02-01T16:49:02;4.40;99.90
21267;DHT22;10791;53.108;18.326;2023-02-01T16:54:07;4.20;99.90
21267;DHT22;10791;53.108;18.326;2023-02-01T16:59:14;4.10;99.90
21267;DHT22;10791;53.108;18.326;2023-02-01T17:04:19;4.20;99.90
21267;DHT22;10791;53.108;18.326;2023-02-01T17:09:23;4.20;99.90
21267;DHT22;10791;53.108;18.326;2023-02-01T17:14:31;4.20;99.90
21267;DHT22;10791;53.108;18.326;2023-02-01T17:19:36;4.20;99.90
21267;DHT22;10791;53.108;18.326;2023-02-01T17:24:41;4.30;99.90
21267;DHT22;10791;53.108;18.326;2023-02-01T17:29:51;4.20;99.90
21267;DHT22;10791;53.108;18.326;2023-02-01T17:34:59;4.20;99.90
21267;DHT22;10791;53.108;18.326;2023-02-01T17:40:03;4.30;99.90
21267;DHT22;10791;53.108;18.326;2023-02-01T17:50:27;4.10;99.90
21267;DHT22;10791;53.108;18.326;2023-02-01T17:55:35;4.10;99.90
21267;DHT22;10791;53.108;18.326;2023-02-01T18:00:40;4.10;99.90
21267;DHT22;10791;53.108;18.326;2023-02-01T18:05:47;4.00;99.90
21267;DHT22;10791;53.108;18.326;2023-02-01T18:10:59;3.90;99.90
21267;DHT22;10791;53.108;18.326;2023-02-01T18:16:04;3.90;99.90
21267;DHT22;10791;53.108;18.326;2023-02-01T18:21:09;3.80;99.90
21267;DHT22;10791;53.108;18.326;2023-02-01T18:26:15;3.70;99.90
21267;DHT22;10791;53.108;18.326;2023-02-01T18:31:26;3.70;99.90
21267;DHT22;10791;53.108;18.326;2023-02-01T18:36:31;3.60;99.90
21267;DHT22;10791;53.108;18.326;2023-02-01T18:41:38;3.50;99.90
21267;DHT22;10791;53.108;18.326;2023-02-01T18:46:44;3.50;99.90
21267;DHT22;10791;53.108;18.326;2023-02-01T18:51:50;3.40;99.90
21267;DHT22;10791;53.108;18.326;2023-02-01T18:56:56;3.40;99.90
21267;DHT22;10791;53.108;18.326;2023-02-01T19:02:02;3.40;99.90
21267;DHT22;10791;53.108;18.326;2023-02-01T19:07:08;3.40;99.90
21267;DHT22;10791;53.108;18.326;2023-02-01T19:12:17;3.40;99.90
21267;DHT22;10791;53.108;18.326;2023-02-01T19:17:28;3.50;99.90
21267;DHT22;10791;53.108;18.326;2023-02-01T19:22:36;3.50;99.90
21267;DHT22;10791;53.108;18.326;2023-02-01T19:27:41;3.50;99.90
21267;DHT22;10791;53.108;18.326;2023-02-01T19:32:47;3.60;99.90
21267;DHT22;10791;53.108;18.326;2023-02-01T19:37:56;3.60;99.90
21267;DHT22;10791;53.108;18.326;2023-02-01T19:43:04;3.60;99.90
21267;DHT22;10791;53.108;18.326;2023-02-01T19:48:09;3.60;99.90
21267;DHT22;10791;53.108;18.326;2023-02-01T19:53:19;3.60;99.90
21267;DHT22;10791;53.108;18.326;2023-02-01T19:58:31;3.70;99.90
21267;DHT22;10791;53.108;18.326;2023-02-01T20:03:41;3.70;99.90
21267;DHT22;10791;53.108;18.326;2023-02-01T20:08:48;3.70;99.90
21267;DHT22;10791;53.108;18.326;2023-02-01T20:13:56;3.70;99.90
21267;DHT22;10791;53.108;18.326;2023-02-01T20:19:04;3.80;99.90
21267;DHT22;10791;53.108;18.326;2023-02-01T20:24:16;3.80;99.90
21267;DHT22;10791;53.108;18.326;2023-02-01T20:29:28;3.80;99.90
21267;DHT22;10791;53.108;18.326;2023-02-01T20:34:33;3.90;99.90
21267;DHT22;10791;53.108;18.326;2023-02-01T20:39:39;3.80;99.90
21267;DHT22;10791;53.108;18.326;2023-02-01T20:44:45;3.80;99.90
21267;DHT22;10791;53.108;18.326;2023-02-01T20:49:51;3.80;99.90
21267;DHT22;10791;53.108;18.326;2023-02-01T20:54:58;3.80;99.90
21267;DHT22;10791;53.108;18.326;2023-02-01T21:00:04;3.70;99.90
21267;DHT22;10791;53.108;18.326;2023-02-01T21:05:17;3.70;99.90
21267;DHT22;10791;53.108;18.326;2023-02-01T21:10:24;3.70;99.90
21267;DHT22;10791;53.108;18.326;2023-02-01T21:15:29;3.70;99.90
21267;DHT22;10791;53.108;18.326;2023-02-01T21:20:36;3.60;99.90
21267;DHT22;10791;53.108;18.326;2023-02-01T21:25:41;3.70;99.90
21267;DHT22;10791;53.108;18.326;2023-02-01T21:30:48;3.70;99.90
21267;DHT22;10791;53.108;18.326;2023-02-01T21:35:54;3.70;99.90
21267;DHT22;10791;53.108;18.326;2023-02-01T21:40:58;3.70;99.90
21267;DHT22;10791;53.108;18.326;2023-02-01T21:46:21;3.70;99.90
21267;DHT22;10791;53.108;18.326;2023-02-01T21:51:26;3.80;99.90
21267;DHT22;10791;53.108;18.326;2023-02-01T21:56:31;3.70;99.90
21267;DHT22;10791;53.108;18.326;2023-02-01T22:01:35;3.80;99.90
21267;DHT22;10791;53.108;18.326;2023-02-01T22:06:41;3.80;99.90
21267;DHT22;10791;53.108;18.326;2023-02-01T22:11:49;3.80;99.90
21267;DHT22;10791;53.108;18.326;2023-02-01T22:16:53;3.80;99.90
21267;DHT22;10791;53.108;18.326;2023-02-01T22:21:56;3.80;99.90
21267;DHT22;10791;53.108;18.326;2023-02-01T22:26:59;3.80;99.90
21267;DHT22;10791;53.108;18.326;2023-02-01T22:32:16;3.90;99.90
21267;DHT22;10791;53.108;18.326;2023-02-01T22:37:20;3.90;99.90
21267;DHT22;10791;53.108;18.326;2023-02-01T22:42:24;3.80;99.90
21267;DHT22;10791;53.108;18.326;2023-02-01T22:47:28;3.80;99.90
21267;DHT22;10791;53.108;18.326;2023-02-01T22:52:32;3.80;99.90
21267;DHT22;10791;53.108;18.326;2023-02-01T22:57:35;3.70;99.90
21267;DHT22;10791;53.108;18.326;2023-02-01T23:02:43;3.70;99.90
21267;DHT22;10791;53.108;18.326;2023-02-01T23:07:48;3.70;99.90
21267;DHT22;10791;53.108;18.326;2023-02-01T23:12:52;3.70;99.90
21267;DHT22;10791;53.108;18.326;2023-02-01T23:17:56;3.70;99.90
21267;DHT22;10791;53.108;18.326;2023-02-01T23:22:59;3.70;99.90
21267;DHT22;10791;53.108;18.326;2023-02-01T23:28:03;3.70;99.90
21267;DHT22;10791;53.108;18.326;2023-02-01T23:33:06;3.80;99.90
21267;DHT22;10791;53.108;18.326;2023-02-01T23:38:10;3.80;99.90
21267;DHT22;10791;53.108;18.326;2023-02-01T23:43:14;3.80;99.90
21267;DHT22;10791;53.108;18.326;2023-02-01T23:48:50;3.90;99.90
21267;DHT22;10791;53.108;18.326;2023-02-01T23:53:55;3.90;99.90
21267;DHT22;10791;53.108;18.326;2023-02-01T23:59:03;3.90;99.90
